Templeton, MA (01468)

8:46 PM EDT on September 04, 2015 (GMT -0400)
S. Main St. East Templeton | | Change Station
CLOSE
Current Station
Personal Weather Station
Location: East Templeton, MA
Elevation: 1033 ft
Nearby Weather Stations

Elev 1033 ft 42.56 °N, 72.04 °W | Updated 1 minute ago

Clear
Clear
63.1 °F
Feels Like 63.1 °F
N
2.0
Wind Variable Wind from NE
Gusts 4.0 mph

Today
High -- | Low -- °F
--% Chance of Precip.
Yesterday
High -- | Low -- °F
Precip. -- in
6:16 AM 7:17 PM
Waning Gibbous, 54% visible
Pressure 30.22 in
Visibility 10.0 miles
Clouds Clear
Dew Point 55 °F
Humidity 75%
Rainfall 0.00 in
Snow Depth Not available.
UV 0 out of 12
Pollen 8.70 out of 12
Air Quality Not available.
Flu Activity Not available.
METAR KORE 042352Z AUTO 13003KT 10SM CLR 21/12 A3022 RMK AO2 SLP231 T02060122 10261 20206 53016
Pressure 30.22 in
Visibility 10.0 miles
Clouds Clear
Dew Point 55 °F
Humidity 75%
Rainfall 0.00 in
Snow Depth Not available.
UV 0 out of 12
Pollen 8.70 out of 12
Air Quality Not available.
Flu Activity Not available.
METAR KORE 042352Z AUTO 13003KT 10SM CLR 21/12 A3022 RMK AO2 SLP231 T02060122 10261 20206 53016

10-Day Weather Forecast

×

Almanac

Astronomy

Sep. 04, 2015 Rise Set
Actual Time
Civil Twilight
Nautical Twilight
Astronomical Twilight
Moon
Length of Visible Light
Length of Day
Tomorrow will be .
, % of the Moon is Illuminated

Today's Extremes

State Highs State Lows

Community

WunderPhotos

Upload Photos

1,852,367 photos uploaded!

WunderBlogs® & News

Nearby

Air Quality

  Air Quality AQ Index Pollutant
Not available.

Snow Depth

Station Depth Elevation

Earthquake Activity

City Distance Mag. Time & Date
Minimum magnitude displayed is 2.5.

Coastal Water Temperatures

Place Temperature

Stations

Nearby Weather Stations

Station Location Temp. Windchill Dew Point Humidity Wind Precip. Elev Updated Type